createdAt,value
2023-11-16T00:01:03.187Z,2.63
2023-11-16T00:03:30.805Z,1.67
2023-11-16T00:05:58.526Z,1.80
2023-11-16T00:08:26.250Z,1.50
2023-11-16T00:10:55.653Z,1.60
2023-11-16T00:13:23.276Z,1.80
2023-11-16T00:15:51.343Z,1.70
2023-11-16T00:18:19.363Z,1.70
2023-11-16T00:20:47.218Z,1.60
2023-11-16T00:23:15.124Z,1.93
2023-11-16T00:25:42.707Z,1.80
2023-11-16T00:28:10.287Z,1.37
2023-11-16T00:30:37.989Z,1.53
2023-11-16T00:33:05.911Z,1.80
2023-11-16T00:35:33.671Z,1.50
2023-11-16T00:38:01.260Z,1.47
2023-11-16T00:40:33.466Z,1.73
2023-11-16T00:43:01.194Z,1.43
2023-11-16T00:45:28.870Z,1.70
2023-11-16T00:47:56.627Z,2.00
2023-11-16T00:50:24.282Z,1.60
2023-11-16T00:52:51.894Z,1.70
2023-11-16T00:55:19.491Z,2.40
2023-11-16T00:57:49.065Z,1.70
2023-11-16T01:00:17.528Z,1.67
2023-11-16T01:02:50.346Z,1.43
2023-11-16T01:05:18.981Z,1.58
2023-11-16T01:07:46.722Z,1.57
2023-11-16T01:10:18.925Z,1.40
2023-11-16T01:12:46.604Z,1.50
2023-11-16T01:15:15.515Z,2.20
2023-11-16T01:17:46.436Z,1.73
2023-11-16T01:20:19.904Z,1.40
2023-11-16T01:23:10.898Z,1.40
2023-11-16T01:25:44.513Z,1.60
2023-11-16T01:28:12.401Z,1.88
2023-11-16T01:30:40.118Z,1.80
2023-11-16T01:33:09.485Z,1.80
2023-11-16T01:35:43.705Z,1.50
2023-11-16T01:38:13.297Z,1.30
2023-11-16T01:40:41.860Z,1.33
2023-11-16T01:43:10.835Z,1.70
2023-11-16T01:45:38.869Z,1.60
2023-11-16T01:48:09.122Z,2.27
2023-11-16T01:50:40.472Z,1.60
2023-11-16T01:53:14.462Z,2.07
2023-11-16T01:55:46.091Z,1.60
2023-11-16T01:58:15.731Z,1.93
2023-11-16T02:00:45.141Z,1.63
2023-11-16T02:03:13.010Z,4.27
2023-11-16T02:05:42.083Z,3.53
2023-11-16T02:08:12.634Z,3.37
2023-11-16T02:10:42.336Z,2.80
2023-11-16T02:13:27.605Z,3.03
2023-11-16T02:15:57.119Z,2.00
2023-11-16T02:18:26.701Z,2.37
2023-11-16T02:20:56.430Z,1.80
2023-11-16T02:23:25.562Z,2.03
2023-11-16T02:25:57.722Z,1.73
2023-11-16T02:28:25.776Z,1.73
2023-11-16T02:30:53.772Z,1.60
2023-11-16T02:33:21.577Z,1.57
2023-11-16T02:35:49.847Z,1.67
2023-11-16T02:38:18.547Z,1.47
2023-11-16T02:40:46.383Z,1.67
2023-11-16T02:43:14.437Z,1.73
2023-11-16T02:45:42.851Z,1.80
2023-11-16T02:48:10.655Z,1.53
2023-11-16T02:50:38.382Z,1.63
2023-11-16T02:53:06.161Z,1.33
2023-11-16T02:55:35.779Z,1.40
2023-11-16T02:58:03.387Z,2.43
2023-11-16T03:00:33.160Z,1.67
2023-11-16T03:03:03.776Z,2.57
2023-11-16T03:05:34.122Z,1.57
2023-11-16T03:08:01.856Z,1.70
2023-11-16T03:10:30.216Z,1.30
2023-11-16T03:12:57.970Z,1.10
2023-11-16T03:15:25.672Z,1.20
2023-11-16T03:17:53.382Z,1.20
2023-11-16T03:20:22.099Z,1.00
2023-11-16T03:22:49.675Z,1.40
2023-11-16T03:25:17.328Z,1.50
2023-11-16T03:27:45.278Z,1.30
2023-11-16T03:30:17.401Z,2.00
2023-11-16T03:32:46.869Z,1.40
2023-11-16T03:35:16.558Z,1.47
2023-11-16T03:37:44.773Z,1.30
2023-11-16T03:40:13.661Z,1.70
2023-11-16T03:42:41.311Z,1.60
2023-11-16T03:45:09.516Z,1.47
2023-11-16T03:47:37.175Z,0.97
2023-11-16T03:50:05.502Z,1.30
2023-11-16T03:52:33.127Z,1.60
2023-11-16T03:55:00.762Z,1.50
2023-11-16T03:57:28.432Z,1.43
2023-11-16T03:59:56.068Z,1.57
2023-11-16T04:02:23.689Z,1.30
2023-11-16T04:04:51.263Z,1.50
2023-11-16T04:07:18.937Z,1.60
2023-11-16T04:09:46.789Z,1.40
2023-11-16T04:12:14.413Z,1.40
2023-11-16T04:14:42.234Z,1.30
2023-11-16T04:17:14.607Z,1.37
2023-11-16T04:19:43.095Z,1.53
2023-11-16T04:22:11.620Z,1.73
2023-11-16T04:25:12.545Z,1.40
2023-11-16T04:27:40.950Z,1.67
2023-11-16T04:30:09.132Z,1.47
2023-11-16T04:32:36.765Z,1.30
2023-11-16T04:35:09.349Z,1.40
2023-11-16T04:37:39.889Z,1.50
2023-11-16T04:40:14.900Z,0.97
2023-11-16T04:42:43.902Z,1.53
2023-11-16T04:45:13.521Z,1.20
2023-11-16T04:47:46.091Z,1.30
2023-11-16T04:50:18.468Z,1.33
2023-11-16T04:52:47.042Z,1.90
2023-11-16T04:55:16.427Z,1.50
2023-11-16T04:57:44.514Z,2.27
2023-11-16T05:00:14.933Z,2.27
2023-11-16T05:02:44.209Z,1.80
2023-11-16T05:05:11.924Z,1.60
2023-11-16T05:07:39.503Z,1.40
2023-11-16T05:10:11.247Z,1.57
2023-11-16T05:12:42.680Z,1.30
2023-11-16T05:15:12.162Z,1.30
2023-11-16T05:17:40.411Z,1.50
2023-11-16T05:20:09.175Z,1.50
2023-11-16T05:22:36.879Z,1.30
2023-11-16T05:25:07.176Z,1.43
2023-11-16T05:27:35.542Z,1.87
2023-11-16T05:30:03.566Z,1.50
2023-11-16T05:32:31.175Z,1.50
2023-11-16T05:34:58.741Z,2.33
2023-11-16T05:37:26.333Z,2.90
2023-11-16T05:39:53.910Z,1.93
2023-11-16T05:42:21.494Z,2.67
2023-11-16T05:44:49.545Z,1.87
2023-11-16T05:47:17.153Z,1.73
2023-11-16T05:49:44.716Z,1.50
2023-11-16T05:52:12.655Z,1.20
2023-11-16T05:54:40.311Z,1.43
2023-11-16T05:57:07.902Z,1.60
2023-11-16T05:59:35.506Z,1.93
2023-11-16T06:02:03.115Z,1.63
2023-11-16T06:04:30.758Z,1.67
2023-11-16T06:06:58.352Z,1.67
2023-11-16T06:09:25.953Z,1.73
2023-11-16T06:11:53.806Z,2.20
2023-11-16T06:14:30.663Z,1.70
2023-11-16T06:17:06.064Z,1.65
2023-11-16T06:19:33.676Z,1.63
2023-11-16T06:24:43.702Z,1.67
2023-11-16T06:27:11.762Z,1.50
2023-11-16T06:29:39.317Z,1.40
2023-11-16T06:32:08.886Z,3.03
2023-11-16T06:34:36.459Z,2.13
2023-11-16T06:37:05.898Z,3.50
2023-11-16T06:39:34.218Z,2.23
2023-11-16T06:42:01.975Z,3.60
2023-11-16T06:44:29.667Z,2.37
2023-11-16T06:46:58.342Z,2.87
2023-11-16T06:49:28.852Z,2.47
2023-11-16T06:51:56.526Z,2.90
2023-11-16T06:54:28.088Z,2.40
2023-11-16T06:56:56.826Z,2.03
2023-11-16T06:59:25.842Z,1.87
2023-11-16T07:01:53.678Z,2.50
2023-11-16T07:04:22.285Z,2.30
2023-11-16T07:06:50.352Z,2.50
2023-11-16T07:09:18.849Z,3.33
2023-11-16T07:11:48.740Z,2.13
2023-11-16T07:14:17.908Z,2.47
2023-11-16T07:16:45.573Z,2.00
2023-11-16T07:19:17.661Z,3.67
2023-11-16T07:21:45.330Z,2.80
2023-11-16T07:24:13.090Z,2.13
2023-11-16T07:26:41.316Z,1.83
2023-11-16T07:29:09.630Z,1.50
2023-11-16T07:31:38.805Z,1.43
2023-11-16T07:34:06.411Z,1.63
2023-11-16T07:36:34.178Z,1.60
2023-11-16T07:39:01.801Z,1.60
2023-11-16T07:41:32.230Z,1.60
2023-11-16T07:43:59.846Z,1.90
2023-11-16T07:46:27.743Z,1.90
2023-11-16T07:48:55.421Z,1.47
2023-11-16T07:51:23.206Z,1.67
2023-11-16T07:53:56.286Z,1.83
2023-11-16T07:56:25.099Z,2.03
2023-11-16T07:58:53.805Z,1.70
2023-11-16T08:04:12.533Z,1.93
2023-11-16T08:06:42.066Z,2.40
2023-11-16T08:09:10.809Z,1.70
2023-11-16T08:11:38.406Z,1.67
2023-11-16T08:14:08.001Z,1.77
2023-11-16T08:16:35.794Z,4.47
2023-11-16T08:19:03.470Z,3.70
2023-11-16T08:21:31.396Z,2.70
2023-11-16T08:23:59.192Z,4.40
2023-11-16T08:26:26.941Z,1.80
2023-11-16T08:28:54.534Z,1.60
2023-11-16T08:31:22.165Z,2.13
2023-11-16T08:33:49.898Z,1.67
2023-11-16T08:36:18.576Z,2.13
2023-11-16T08:38:47.855Z,1.60
2023-11-16T08:41:16.622Z,1.97
2023-11-16T08:43:48.731Z,2.07
2023-11-16T08:46:22.592Z,2.77
2023-11-16T08:48:52.562Z,1.93
2023-11-16T08:51:24.493Z,2.10
2023-11-16T08:53:57.579Z,2.27
2023-11-16T08:56:35.451Z,2.35
2023-11-16T08:59:09.605Z,2.70
2023-11-16T09:01:39.215Z,2.53
2023-11-16T09:04:10.589Z,1.87
2023-11-16T09:06:38.521Z,2.00
2023-11-16T09:09:32.298Z,2.20
2023-11-16T09:12:04.507Z,1.38
2023-11-16T09:14:35.446Z,1.90
2023-11-16T09:17:12.656Z,1.70
2023-11-16T09:19:42.133Z,2.10
2023-11-16T09:22:10.997Z,2.00
2023-11-16T09:24:40.363Z,2.17
2023-11-16T09:27:08.176Z,2.27
2023-11-16T09:29:39.943Z,2.00
2023-11-16T09:32:11.513Z,1.63
2023-11-16T09:34:39.314Z,2.00
2023-11-16T09:37:08.211Z,1.90
2023-11-16T09:39:35.959Z,1.60
2023-11-16T09:42:08.871Z,2.17
2023-11-16T09:44:40.605Z,1.80
2023-11-16T09:47:26.867Z,1.93
2023-11-16T09:49:57.516Z,1.90
2023-11-16T09:52:27.959Z,1.80
2023-11-16T09:55:01.918Z,2.60
2023-11-16T09:57:39.180Z,1.73
2023-11-16T10:00:17.034Z,2.80
2023-11-16T10:02:48.047Z,2.10
2023-11-16T10:05:23.532Z,2.00
2023-11-16T10:07:54.451Z,2.10
2023-11-16T10:10:22.259Z,1.80
2023-11-16T10:12:51.129Z,5.93
2023-11-16T10:15:21.703Z,4.30
2023-11-16T10:17:50.043Z,2.73
2023-11-16T10:20:19.076Z,2.53
2023-11-16T10:22:48.111Z,2.10
2023-11-16T10:25:16.594Z,1.83
2023-11-16T10:27:44.926Z,3.00
2023-11-16T10:30:17.363Z,2.33
2023-11-16T10:32:48.388Z,2.57
2023-11-16T10:35:18.909Z,2.43
2023-11-16T10:37:46.727Z,3.10
2023-11-16T10:40:14.426Z,3.55
2023-11-16T10:42:46.540Z,3.10
2023-11-16T10:45:18.166Z,3.23
2023-11-16T10:47:46.952Z,3.23
2023-11-16T10:50:16.921Z,3.27
2023-11-16T10:52:46.412Z,2.60
2023-11-16T10:55:23.320Z,2.30
2023-11-16T10:58:06.972Z,2.10
2023-11-16T11:00:38.998Z,2.40
2023-11-16T11:03:08.501Z,2.20
2023-11-16T11:05:38.763Z,3.30
2023-11-16T11:08:10.114Z,4.00
2023-11-16T11:10:42.480Z,3.27
2023-11-16T11:13:11.747Z,4.00
2023-11-16T11:15:41.280Z,4.07
2023-11-16T11:18:09.937Z,3.23
2023-11-16T11:20:41.486Z,2.97
2023-11-16T11:23:15.101Z,4.07
2023-11-16T11:25:43.528Z,4.90
2023-11-16T11:28:13.598Z,4.13
2023-11-16T11:31:01.579Z,3.50
2023-11-16T11:33:46.494Z,3.73
2023-11-16T11:36:21.803Z,4.90
2023-11-16T11:38:54.659Z,3.53
2023-11-16T11:41:24.245Z,3.70
2023-11-16T11:43:51.906Z,3.37
2023-11-16T11:46:20.096Z,3.20
2023-11-16T11:48:51.903Z,2.63
2023-11-16T11:51:20.812Z,2.47
2023-11-16T11:53:49.775Z,3.33
2023-11-16T11:56:17.939Z,3.37
2023-11-16T11:58:45.537Z,2.83
2023-11-16T12:01:13.394Z,2.63
2023-11-16T12:04:06.068Z,2.03
2023-11-16T12:06:38.062Z,2.50
2023-11-16T12:09:07.501Z,1.73
2023-11-16T12:11:36.090Z,1.80
2023-11-16T12:14:04.611Z,2.80
2023-11-16T12:16:32.379Z,1.58
2023-11-16T12:19:00.063Z,1.63
2023-11-16T12:21:27.866Z,2.23
2023-11-16T12:23:56.628Z,2.77
2023-11-16T12:26:32.738Z,3.80
2023-11-16T12:29:00.343Z,3.87
2023-11-16T12:31:28.532Z,5.80
2023-11-16T12:33:57.312Z,6.80
2023-11-16T12:36:26.924Z,5.57
2023-11-16T12:38:54.613Z,5.17
2023-11-16T12:41:25.648Z,8.13
2023-11-16T12:43:54.275Z,9.77
2023-11-16T12:46:24.667Z,5.80
2023-11-16T12:48:53.160Z,3.10
2023-11-16T12:51:21.906Z,3.83
2023-11-16T12:53:49.762Z,14.97
2023-11-16T12:56:18.511Z,11.37
2023-11-16T12:58:47.063Z,6.13
2023-11-16T13:01:16.642Z,6.03
2023-11-16T13:03:50.229Z,5.37
2023-11-16T13:06:21.137Z,5.53
2023-11-16T13:08:50.211Z,4.63
2023-11-16T13:11:18.350Z,4.83
2023-11-16T13:13:46.249Z,4.77
2023-11-16T13:16:16.035Z,6.93
2023-11-16T13:18:46.058Z,5.97
2023-11-16T13:21:18.848Z,5.30
2023-11-16T13:23:48.442Z,5.50
2023-11-16T13:26:16.122Z,5.53
2023-11-16T13:28:45.953Z,4.93
2023-11-16T13:31:15.753Z,5.17
2023-11-16T13:33:53.552Z,5.40
2023-11-16T13:36:21.453Z,5.10
2023-11-16T13:38:54.827Z,5.90
2023-11-16T13:41:24.105Z,5.53
2023-11-16T13:43:51.782Z,5.60
2023-11-16T13:46:19.567Z,5.03
2023-11-16T13:48:48.056Z,4.90
2023-11-16T13:51:15.626Z,4.17
2023-11-16T13:53:43.301Z,4.00
2023-11-16T13:56:11.893Z,4.83
2023-11-16T13:58:40.837Z,4.20
2023-11-16T14:01:10.193Z,4.00
2023-11-16T14:03:38.131Z,3.10
2023-11-16T14:06:07.024Z,5.77
2023-11-16T14:08:34.845Z,4.40
2023-11-16T14:11:03.584Z,3.67
2023-11-16T14:13:31.172Z,3.73
2023-11-16T14:16:04.913Z,3.97
2023-11-16T14:18:34.651Z,3.40
2023-11-16T14:21:06.859Z,3.00
2023-11-16T14:23:37.189Z,3.77
2023-11-16T14:26:09.668Z,3.93
2023-11-16T14:28:37.340Z,3.47
2023-11-16T14:31:05.607Z,3.30
2023-11-16T14:33:33.317Z,4.10
2023-11-16T14:36:01.018Z,3.23
2023-11-16T14:38:28.617Z,2.70
2023-11-16T14:40:56.224Z,3.77
2023-11-16T14:43:23.794Z,7.40
2023-11-16T14:45:51.733Z,9.83
2023-11-16T14:48:19.639Z,7.23
2023-11-16T14:50:51.119Z,11.17
2023-11-16T14:53:22.337Z,11.97
2023-11-16T14:55:50.944Z,8.13
2023-11-16T14:58:20.795Z,4.30
2023-11-16T15:00:48.438Z,5.27
2023-11-16T15:03:16.201Z,4.07
2023-11-16T15:05:43.855Z,3.50
2023-11-16T15:08:11.408Z,3.53
2023-11-16T15:10:38.991Z,3.30
2023-11-16T15:13:07.802Z,7.93
2023-11-16T15:15:35.856Z,4.13
2023-11-16T15:18:04.850Z,5.60
2023-11-16T15:20:35.959Z,4.30
2023-11-16T15:23:03.596Z,4.83
2023-11-16T15:25:31.234Z,5.00
2023-11-16T15:27:59.177Z,3.93
2023-11-16T15:30:26.937Z,3.47
2023-11-16T15:32:55.018Z,3.40
2023-11-16T15:35:25.993Z,2.60
2023-11-16T15:37:57.826Z,2.70
2023-11-16T15:40:26.517Z,2.70
2023-11-16T15:42:54.344Z,3.00
2023-11-16T15:45:22.042Z,4.60
2023-11-16T15:47:50.269Z,6.40
2023-11-16T15:50:17.880Z,6.00
2023-11-16T15:52:45.711Z,4.53
2023-11-16T15:55:13.536Z,4.20
2023-11-16T15:57:41.509Z,6.03
2023-11-16T16:00:12.242Z,6.57
2023-11-16T16:02:42.992Z,5.20
2023-11-16T16:05:10.686Z,5.20
2023-11-16T16:07:38.412Z,4.17
2023-11-16T16:10:06.938Z,4.23
2023-11-16T16:12:35.741Z,5.57
2023-11-16T16:15:06.432Z,5.80
2023-11-16T16:17:35.224Z,8.73
2023-11-16T16:20:04.684Z,9.33
2023-11-16T16:22:32.268Z,7.73
2023-11-16T16:24:59.902Z,6.97
2023-11-16T16:27:27.542Z,7.37
2023-11-16T16:29:55.150Z,8.87
2023-11-16T16:32:22.960Z,13.10
2023-11-16T16:34:51.310Z,8.17
2023-11-16T16:37:18.902Z,7.33
2023-11-16T16:39:46.555Z,7.17
2023-11-16T16:42:14.170Z,6.73
2023-11-16T16:44:41.763Z,8.00
2023-11-16T16:47:09.521Z,10.40
2023-11-16T16:49:37.179Z,7.50
2023-11-16T16:52:05.122Z,8.90
2023-11-16T16:54:32.952Z,5.57
2023-11-16T16:57:00.599Z,9.93
2023-11-16T16:59:28.255Z,10.37
2023-11-16T17:01:55.925Z,11.13
2023-11-16T17:04:23.658Z,11.77
2023-11-16T17:06:51.288Z,12.00
2023-11-16T17:09:18.934Z,14.37
2023-11-16T17:11:46.976Z,9.80
2023-11-16T17:14:15.375Z,6.97
2023-11-16T17:16:43.636Z,9.20
2023-11-16T17:19:11.830Z,6.00
2023-11-16T17:21:44.844Z,6.73
2023-11-16T17:26:43.934Z,6.83
2023-11-16T17:29:11.579Z,6.63
2023-11-16T17:31:39.373Z,7.23
2023-11-16T17:34:11.256Z,17.47
2023-11-16T17:36:39.144Z,10.67
2023-11-16T17:39:09.620Z,6.90
2023-11-16T17:41:37.503Z,5.33
2023-11-16T17:44:05.386Z,7.17
2023-11-16T17:46:33.089Z,7.70
2023-11-16T17:49:01.640Z,15.23
2023-11-16T17:51:29.433Z,12.43
2023-11-16T17:53:57.933Z,15.27
2023-11-16T17:56:25.586Z,12.03
2023-11-16T17:58:54.174Z,19.43
2023-11-16T18:01:22.432Z,16.03
2023-11-16T18:03:50.159Z,9.17
2023-11-16T18:06:18.663Z,14.43
2023-11-16T18:08:46.428Z,11.40
2023-11-16T18:11:14.118Z,18.10
2023-11-16T18:13:47.020Z,16.27
2023-11-16T18:16:14.779Z,14.03
2023-11-16T18:18:42.689Z,17.60
2023-11-16T18:21:10.398Z,13.83
2023-11-16T18:23:38.063Z,13.80
2023-11-16T18:26:06.805Z,15.27
2023-11-16T18:28:35.237Z,13.53
2023-11-16T18:31:03.232Z,14.60
2023-11-16T18:33:31.798Z,22.53
2023-11-16T18:36:03.097Z,18.00
2023-11-16T18:38:30.943Z,17.43
2023-11-16T18:40:59.972Z,18.30
2023-11-16T18:43:34.337Z,13.40
2023-11-16T18:46:02.069Z,12.30
2023-11-16T18:48:30.724Z,8.90
2023-11-16T18:50:58.358Z,9.80
2023-11-16T18:53:25.933Z,14.33
2023-11-16T18:55:58.979Z,14.83
2023-11-16T18:58:26.614Z,10.88
2023-11-16T19:00:54.235Z,10.80
2023-11-16T19:03:22.540Z,8.93
2023-11-16T19:05:50.180Z,8.30
2023-11-16T19:08:20.377Z,8.27
2023-11-16T19:10:48.100Z,8.13
2023-11-16T19:13:15.808Z,8.83
2023-11-16T19:15:44.619Z,9.60
2023-11-16T19:18:12.872Z,8.43
2023-11-16T19:20:40.911Z,11.27
2023-11-16T19:23:13.069Z,9.70
2023-11-16T19:25:44.379Z,10.23
2023-11-16T19:28:12.139Z,12.07
2023-11-16T19:30:39.832Z,16.77
2023-11-16T19:33:07.919Z,16.07
2023-11-16T19:35:35.920Z,14.13
2023-11-16T19:38:03.552Z,11.73
2023-11-16T19:40:38.958Z,12.53
2023-11-16T19:43:08.640Z,12.30
2023-11-16T19:45:37.974Z,10.57
2023-11-16T19:48:07.444Z,7.00
2023-11-16T19:50:38.617Z,8.77
2023-11-16T19:53:07.868Z,9.33
2023-11-16T19:55:39.386Z,8.07
2023-11-16T19:58:09.106Z,13.90
2023-11-16T20:00:39.253Z,8.87
2023-11-16T20:03:08.167Z,9.93
2023-11-16T20:05:36.277Z,7.93
2023-11-16T20:08:04.064Z,7.87
2023-11-16T20:10:37.785Z,8.93
2023-11-16T20:13:07.547Z,9.57
2023-11-16T20:15:36.037Z,8.07
2023-11-16T20:18:03.750Z,7.17
2023-11-16T20:20:36.167Z,8.13
2023-11-16T20:23:08.094Z,8.23
2023-11-16T20:25:35.824Z,10.30
2023-11-16T20:28:07.181Z,10.67
2023-11-16T20:30:34.841Z,8.53
2023-11-16T20:33:02.485Z,7.70
2023-11-16T20:35:30.149Z,6.90
2023-11-16T20:37:57.732Z,6.90
2023-11-16T20:40:25.433Z,6.63
2023-11-16T20:42:57.658Z,6.20
2023-11-16T20:45:25.615Z,6.97
2023-11-16T20:47:53.248Z,7.57
2023-11-16T20:50:21.855Z,8.40
2023-11-16T20:52:49.486Z,8.30
2023-11-16T20:56:10.265Z,8.80
2023-11-16T20:58:37.865Z,7.57
2023-11-16T21:01:07.683Z,11.50
2023-11-16T21:03:35.980Z,7.60
2023-11-16T21:06:03.846Z,7.83
2023-11-16T21:08:31.451Z,8.10
2023-11-16T21:10:59.085Z,10.63
2023-11-16T21:13:26.669Z,10.00
2023-11-16T21:15:54.405Z,12.67
2023-11-16T21:18:22.166Z,12.93
2023-11-16T21:20:49.736Z,12.63
2023-11-16T21:23:17.350Z,8.10
2023-11-16T21:25:44.979Z,7.33
2023-11-16T21:28:12.728Z,10.53
2023-11-16T21:30:40.362Z,6.87
2023-11-16T21:33:08.970Z,6.83
2023-11-16T21:35:36.616Z,6.73
2023-11-16T21:38:04.333Z,6.63
2023-11-16T21:40:33.130Z,8.70
2023-11-16T21:43:00.922Z,8.60
2023-11-16T21:45:30.181Z,16.63
2023-11-16T21:47:57.817Z,10.27
2023-11-16T21:50:26.032Z,7.33
2023-11-16T21:52:53.682Z,10.27
2023-11-16T21:55:24.428Z,8.77
2023-11-16T21:57:52.068Z,6.47
2023-11-16T22:00:19.707Z,7.80
2023-11-16T22:02:48.018Z,13.10
2023-11-16T22:05:15.893Z,8.80
2023-11-16T22:07:47.117Z,9.20
2023-11-16T22:10:19.525Z,7.47
2023-11-16T22:12:53.630Z,8.83
2023-11-16T22:15:21.710Z,6.10
2023-11-16T22:17:51.361Z,8.30
2023-11-16T22:20:19.615Z,6.57
2023-11-16T22:22:49.799Z,6.00
2023-11-16T22:25:19.130Z,6.00
2023-11-16T22:27:48.649Z,5.63
2023-11-16T22:30:18.452Z,5.97
2023-11-16T22:32:47.147Z,5.30
2023-11-16T22:35:16.608Z,5.47
2023-11-16T22:37:49.102Z,5.70
2023-11-16T22:40:20.013Z,5.43
2023-11-16T22:42:48.373Z,5.60
2023-11-16T22:45:16.080Z,5.53
2023-11-16T22:47:45.274Z,4.57
2023-11-16T22:50:15.610Z,4.50
2023-11-16T22:52:43.957Z,3.87
2023-11-16T22:55:13.849Z,3.60
2023-11-16T22:57:42.680Z,3.83
2023-11-16T23:00:18.584Z,3.80
2023-11-16T23:02:46.494Z,3.30
2023-11-16T23:05:14.712Z,4.40
2023-11-16T23:07:43.048Z,3.70
2023-11-16T23:10:11.746Z,3.40
2023-11-16T23:12:39.729Z,3.77
2023-11-16T23:15:09.644Z,6.50
2023-11-16T23:17:41.558Z,3.70
2023-11-16T23:20:11.890Z,4.00
2023-11-16T23:22:41.066Z,3.90
2023-11-16T23:25:13.609Z,3.57
2023-11-16T23:27:47.392Z,5.87
2023-11-16T23:30:15.076Z,26.90
2023-11-16T23:32:42.711Z,4.70
2023-11-16T23:35:11.088Z,6.50
2023-11-16T23:37:38.716Z,8.30
2023-11-16T23:40:07.658Z,4.27
2023-11-16T23:42:35.351Z,4.07
2023-11-16T23:45:03.302Z,3.43
2023-11-16T23:47:30.989Z,4.17
2023-11-16T23:49:59.075Z,3.80
2023-11-16T23:52:26.735Z,3.37
2023-11-16T23:54:54.609Z,2.93
2023-11-16T23:57:22.591Z,2.30
2023-11-16T23:59:50.282Z,3.20
